Tyler Weah

Recruteur en chef - Inter Miami CF
17 Juil 2027
Samedi
Processus

Personnalité

Adaptabilité (2) Ambition (6) Controverse (14) Loyauté (3) Pression (19) Professionnalisme (18) Sportivité (8) Tempérament (14)

Profil

Style d'entraînement Démocratique
Diplôme Continental A
Détermination 9
Gestion des joueurs 10
Motivation 10
Discipline 8
Satisfaction professionnelle
68%
Fatigue
0%
Rôle Recruteur en chef
Salaire 28.7K p/s
Contrat 14.03.2030

Performance

Comportement Bon
Efficacité de l'entraînement
25%
Développement des joueurs
35%
Prévention des blessures
40%
Mise en place tactique
55%

Événements récents

A recommandé une cible de transfert 7j
A participé à une réunion de recrutement 7j
A participé à une réunion de recrutement 7j
A participé à une réunion de recrutement 7j
A participé à une réunion de recrutement 7j
A participé à une réunion de recrutement 7j
A évalué un joueur 7j
A évalué un joueur 7j

Suivi en cours

96
Joueur Club Statut Capacité Confiance Observé Dernière observation Dernier vote
Mohammed Wakaso Hasaacas Actif 81 / 92 40% 4 07.07.2027 -
Jonathan Bland Barnsley Actif 107 / 104 40% 4 07.07.2027 -
Daniel Kelly Derby County Actif 121 / 116 40% 3 06.07.2027 -
Luka Vušković Tottenham Actif 146 / 148 40% 3 06.07.2027 -
Enzo Cardozo Virtus Entella Actif 113 / 123 40% 2 05.07.2027 -
Jofrank Istifanus Nasarawa United Actif 79 / 94 40% 1 05.07.2027 -
Simone Kosijer Triestina Actif 101 / 101 40% 1 02.07.2027 -
Jaydee Canvot Liverpool Actif 128 / 138 40% 1 01.07.2027 -
Riley Owen Wycombe Wanderers Actif 112 / 109 40% 4 30.06.2027 -
Riquelme Thompson-Jones Shrewsbury Town Actif 112 / 113 40% 6 30.06.2027 Observer
Sam Curtis Swindon Town Actif 95 / 103 40% 3 27.06.2027 -
Ronan Kpakio Brentford Actif 117 / 124 40% 5 26.06.2027 -
Abraham Paintsil Hasaacas Actif 76 / 108 40% 4 24.06.2027 -
Joel Ezra Enyimba Actif 85 / 92 40% 2 22.06.2027 -
Rhys Chadwick Gillingham Actif 99 / 110 40% 3 22.06.2027 -
Jonathan De Irastorza Levante Actif 126 / 122 40% 2 21.06.2027 -
Olaniyi Saheed Kwara United Actif 92 / 99 40% 1 20.06.2027 -
Godwin Oham Warri Wolves Actif 87 / 102 40% 1 19.06.2027 -
Issa Yusuf Shooting Stars Actif 87 / 95 40% 1 18.06.2027 -
Sascha Britschgi Catanzaro Actif 121 / 131 40% 1 16.06.2027 -
Jérémy Jacquet Liverpool Actif 137 / 153 40% 1 13.06.2027 -
Gladson Sulemana Liberty Professionals Actif 102 / 91 40% 2 10.06.2027 -
Martim Cunha Porto Actif 100 / 103 40% 1 10.06.2027 -
Victor Ehibe Gazelle Garoua Actif 96 / 102 40% 2 09.06.2027 -
Ibrahim Sabiu Bendel Insurance Actif 98 / 88 40% 1 09.06.2027 -
Davide Bartesaghi AC Milan Actif 129 / 142 40% 1 08.06.2027 -
Eduard Atuesta Orlando City Actif 129 / 124 62% 1 08.03.2027 Approuver
Ezekiel Kwame Alladoh Sheffield United Actif 124 / 116 40% 1 08.03.2027 -
Charlie Lennon Barnsley Actif 86 / 87 40% 1 08.03.2027 -
Emmanuel Nweke Smouha Actif 90 / 111 40% 1 03.03.2027 -
Jeffrey Adjei Wa All Stars Actif 71 / 82 40% 1 03.03.2027 -
Dylan Lawlor Cardiff City Actif 106 / 115 40% 2 12.02.2027 -
Tiago Freitas Benfica Actif 113 / 110 40% 1 12.02.2027 -
Luca Bombino Stoke City Actif 105 / 106 40% 6 11.02.2027 -
Maeson King Blackpool Actif 110 / 113 40% 4 10.02.2027 -
Ezra Mayers West Ham United Actif 118 / 129 40% 5 02.02.2027 Observer
Thomas Atiemo Wa All Stars Actif 89 / 100 40% 1 02.02.2027 Plus d'infos
Simphiwe Selepe Orlando Pirates Actif 117 / 117 40% 7 01.02.2027 Observer
David Ozoh Derby County Actif 112 / 130 40% 1 01.02.2027 Plus d'infos
Christos Mouzakitis Hull City Actif 126 / 137 40% 5 30.01.2027 -
Luther Ngcobo Ajax Cape Town Actif 116 / 97 40% 1 30.01.2027 -
Nico O'Reilly Manchester City Actif 144 / 161 40% 3 25.01.2027 -
Taras Mykhavko Dynamo Kyiv Actif 135 / 117 40% 1 25.01.2027 -
Caleb Yirenkyi Coventry City Actif 138 / 139 40% 1 14.01.2027 -
Brandon Khela Peterborough United Actif 102 / 94 40% 1 13.01.2027 -
Matai Akinmboni Bournemouth Actif 108 / 112 40% 14 09.01.2027 -
Owen Lunt Crewe Alexandra Actif 92 / 111 40% 2 08.01.2027 -
Jacob Wright Norwich City Actif 109 / 123 40% 2 07.01.2027 -
James Dornelly Peterborough United Actif 95 / 107 40% 1 07.01.2027 -
Gady Beyuku Blackburn Rovers Actif 117 / 122 40% 2 01.01.2027 -
Sean Fusire Sheffield Wednesday Actif 96 / 100 40% 1 31.12.2026 -
Jorrel Hato Chelsea Actif 145 / 159 40% 2 29.12.2026 -
T-Jay Parfitt Cardiff City Actif 93 / 100 40% 2 25.12.2026 -
Surprise Manthosi Polokwane City Actif 77 / 98 40% 2 20.12.2026 -
Josh Wynder Benfica Actif 107 / 106 40% 1 15.12.2026 -
Kaick FC Dallas Actif 106 / 109 40% 3 11.12.2026 -
Matías Gómez Valencia Actif 103 / 115 40% 1 04.12.2026 -
Reuell Walters Luton Town Actif 111 / 112 40% 3 01.12.2026 -
Thiago Silvero Sevilla Actif 112 / 123 40% 1 19.11.2026 -
Law McCabe Middlesbrough Actif 97 / 123 40% 2 18.11.2026 -
Alex Williams Salford City Actif 96 / 90 40% 1 16.11.2026 -
Philippe Ndinga Philadelphia Union Actif 105 / 116 40% 3 14.11.2026 -
Sergio Castillo Cortulua Actif 101 / 110 40% 3 06.11.2026 -
Alan Forneris Racing Club Actif 104 / 118 40% 1 03.11.2026 -
Yahaya Ibrahim Plateau United Actif 72 / 79 40% 1 30.10.2026 -
Morrison Agyemang Charlotte Football Club Actif 104 / 128 40% 2 24.10.2026 -
Joel Godoy Sarmiento Actif 119 / 116 40% 1 23.10.2026 -
Kai Andrews Coventry City Actif 112 / 116 40% 1 21.10.2026 -
Alejo Gelsomino Gimnasia La Plata Actif 92 / 100 40% 1 17.10.2026 -
Mbekezeli Mbokazi Chicago Fire Actif 115 / 124 40% 1 09.10.2026 -
Hosea Michael Remo Stars Actif 82 / 89 40% 1 04.10.2026 -
Roman Dixon Walsall Actif 106 / 109 40% 1 04.10.2026 -
Tom Atcheson Blackburn Rovers Actif 114 / 112 40% 2 03.10.2026 -
Elías Báez Atlanta United FC Actif 127 / 122 40% 3 01.10.2026 -
Sergio Oregel Chicago Fire Actif 112 / 109 40% 1 01.10.2026 -
Diego León Manchester United Actif 112 / 108 40% 1 29.09.2026 -
Nazareno Roselli Defensa y Justicia Actif 111 / 119 40% 1 28.09.2026 -
Cristian Orozco Manchester United Actif 79 / 108 40% 1 28.09.2026 -
Lucas Richarte Temperley Actif 98 / 111 40% 2 27.09.2026 -
Santiago Espíndola River Plate Actif 103 / 116 40% 1 25.09.2026 -
Jarvis Thornton Sheffield Wednesday Actif 94 / 115 40% 1 19.09.2026 -
Máximo Johnston Colón Actif 101 / 103 40% 1 18.09.2026 -
Dylan Gorosito Boca Juniors Actif 105 / 121 40% 1 17.09.2026 -
Chibueze Oputa Rangers International Actif 73 / 83 40% 1 17.09.2026 -
Jid Okeke Stockport County Actif 87 / 98 40% 1 16.09.2026 -
Ignacio Ovando Rosario Central Actif 101 / 118 40% 1 15.09.2026 -
Uche Jaguar Kwara United Actif 101 / 102 40% 1 15.09.2026 -
James Debayo Hull City Actif 92 / 104 40% 1 10.09.2026 -
Cemran Dansin Orlando Pirates Actif 122 / 104 40% 1 09.09.2026 -
Ramiro Pedroza San Lorenzo Actif 84 / 94 40% 1 08.09.2026 -
Lautaro Gaitán Colón Actif 98 / 97 40% 1 30.08.2026 -
Cathal McCarthy Hull City Actif 87 / 95 40% 1 27.08.2026 -
Joaquín Soria Talleres Actif 91 / 96 40% 1 26.08.2026 -
Matías Magdaleno Estudiantes Actif 99 / 101 40% 1 18.08.2026 -
Mauricio Amaro Atlanta United FC Actif 124 / 127 40% 1 14.08.2026 -
Lautaro Bursich Talleres Actif 101 / 90 40% 1 02.08.2026 -